Lefor, ND

5:29 AM MDT on March 29, 2015 (GMT -0600)
| | Change Station
CLOSE
Current Station
Personal Weather Station
Location: ,
Elevation: -9999 ft
Nearby Weather Stations
Active Advisory: High Wind Warning Active Notice: Record Report, Local Storm Report

Elev -9999 ft 0.00 °N, 0.00 °E | Updated

Clear
Clear
38 °F
Feels Like 27 °F
N
20
Wind Variable Wind from NW
Gusts 36 mph

Today
High -- | Low -- °F
--% Chance of Precip.
Yesterday
High -- | Low -- °F
Precip. -- in
6:35 AM 7:15 PM
Waxing Gibbous, 70% visible
Pressure 29.97 in
Visibility 10.0 miles
Clouds Clear
Windchill 27 °F
Dew Point 31 °F
Humidity 75%
Rainfall -9999.00 in
Snow Depth Not available.
UV 0 out of 12
Pollen 4.50 out of 12
Air Quality Not available.
Flu Activity Not available.
METAR KDIK 291056Z AUTO 31015KT 10SM CLR 02/M01 A2997 RMK AO2 PK WND 32036/1004 SLP149 T00171006

More Conditions Fewer Conditions

Pressure 29.97 in
Visibility 10.0 miles
Clouds Clear
Windchill 27 °F
Dew Point 31 °F
Humidity 75%
Rainfall -9999.00 in
Snow Depth Not available.
UV 0 out of 12
Pollen 4.50 out of 12
Air Quality Not available.
Flu Activity Not available.
METAR KDIK 291056Z AUTO 31015KT 10SM CLR 02/M01 A2997 RMK AO2 PK WND 32036/1004 SLP149 T00171006

More Conditions Fewer Conditions

10-Day Weather Forecast

Almanac

Astronomy

Mar. 29, 2015 Rise Set
Actual Time
Civil Twilight
Nautical Twilight
Astronomical Twilight
Moon
Length of Visible Light
Length of Day
Tomorrow will be .
, % of the Moon is Illuminated

Today's Extremes

State Highs State Lows

Community

WunderPhotos

Upload Photos

1,809,214 photos uploaded!

WunderBlogs® & News

Nearby

Air Quality

  Air Quality AQ Index Pollutant
Not available.

Snow Depth

Station Depth Elevation

Earthquake Activity

City Distance Mag. Time & Date
Minimum magnitude displayed is 2.5.

Coastal Water Temperatures

Place Temperature

Stations

Nearby Weather Stations

Station Location Temp. Windchill Dew Point Humidity Wind Precip. Elev Updated Type
                   
High Wind Warning
Statement as of 2:21 AM MDT on March 29, 2015

... High Wind Warning remains in effect until 10 am CDT /9 am MDT/
this morning...

* timing... through this morning.

* Winds... northwest wind gusts to 60 mph.

* Impacts... hazardous travel... especially for high profile
vehicles. Hazardous outdoor working conditions.

Precautionary/preparedness actions...

A High Wind Warning means a hazardous high wind event is expected
or is occurring. Sustained winds of at least 40 mph... and or
gusts of 58 mph or higher can lead to property damage.